Time;durP1;ratioP1;P1;durP2;ratioP2;P2;SDS_P1;SDS_P2;PMS_P1;PMS_P2;Temp;Humidity;BMP_temperature;BMP_pressure;BME280_temperature;BME280_humidity;BME280_pressure;Samples;Min_cycle;Max_cycle;Signal;HPM_P1;HPM_P2
2022/08/27 00:01:17;;;;;;;5.63;1.50;;;;;;;;;;4945354;29;20470;-71
2022/08/27 00:04:07;;;;;;;5.70;1.70;;;;;;;;;;4944837;29;20232;-70
2022/08/27 00:06:57;;;;;;;9.30;2.00;;;;;;;;;;4945505;29;20685;-70
2022/08/27 00:09:47;;;;;;;5.20;1.70;;;;;;;;;;4944914;29;20253;-71
2022/08/27 00:12:37;;;;;;;6.43;1.75;;;;;;;;;;4944389;29;20224;-70
2022/08/27 00:15:04;;;;;;;5.45;1.73;;;;;;;;;;4945976;29;20238;-70
2022/08/27 00:17:29;;;;;;;6.30;1.80;;;;;;;;;;4943467;29;20669;-69
2022/08/27 00:19:55;;;;;;;5.45;1.45;;;;;;;;;;4927417;28;20234;-67
2022/08/27 00:22:20;;;;;;;6.72;1.77;;;;;;;;;;4930897;28;20198;-68
2022/08/27 00:24:45;;;;;;;6.90;1.88;;;;;;;;;;4928003;28;20179;-68
2022/08/27 00:27:10;;;;;;;7.60;1.85;;;;;;;;;;4932644;28;20194;-68
2022/08/27 00:29:36;;;;;;;6.15;1.83;;;;;;;;;;4937576;28;20182;-68
2022/08/27 00:32:01;;;;;;;5.60;1.50;;;;;;;;;;4939741;28;20189;-68
2022/08/27 00:34:27;;;;;;;8.23;1.83;;;;;;;;;;4935017;28;20245;-68
2022/08/27 00:36:52;;;;;;;7.07;1.90;;;;;;;;;;4939409;28;20325;-68
2022/08/27 00:39:18;;;;;;;6.35;1.98;;;;;;;;;;4939465;28;21131;-68
2022/08/27 00:41:43;;;;;;;7.22;1.77;;;;;;;;;;4937316;28;20284;-69
2022/08/27 00:44:08;;;;;;;7.03;1.80;;;;;;;;;;4938874;28;20241;-68
2022/08/27 00:46:45;;;;;;;5.72;1.83;;;;;;;;;;4933723;28;20202;-68
2022/08/27 00:49:14;;;;;;;10.35;1.80;;;;;;;;;;4935927;28;20880;-68
2022/08/27 00:57:46;;;;;;;10.57;2.28;;;;;;;;;;4981135;28;20208;-69
2022/08/27 01:00:13;;;;;;;6.55;2.28;;;;;;;;;;4978468;28;20190;-68
2022/08/27 01:02:38;;;;;;;6.50;2.10;;;;;;;;;;4979880;28;20177;-68
2022/08/27 01:05:06;;;;;;;6.13;1.92;;;;;;;;;;4981033;28;20186;-69
2022/08/27 01:07:32;;;;;;;6.28;1.90;;;;;;;;;;4973716;28;20220;-68
2022/08/27 01:09:58;;;;;;;7.15;1.90;;;;;;;;;;4969009;28;20264;-68
2022/08/27 01:12:23;;;;;;;6.28;1.90;;;;;;;;;;4975786;28;20699;-68
2022/08/27 01:14:49;;;;;;;7.07;1.83;;;;;;;;;;4976313;28;20277;-69
2022/08/27 01:17:15;;;;;;;5.35;2.10;;;;;;;;;;4981413;28;20225;-69
2022/08/27 01:19:42;;;;;;;7.07;1.95;;;;;;;;;;4979264;28;20199;-68
2022/08/27 01:22:14;;;;;;;9.27;2.30;;;;;;;;;;4981307;28;20197;-68
2022/08/27 01:24:40;;;;;;;7.15;1.98;;;;;;;;;;4982710;28;20185;-69
2022/08/27 01:27:06;;;;;;;6.28;1.90;;;;;;;;;;4976889;28;20770;-68
2022/08/27 01:29:31;;;;;;;7.20;2.25;;;;;;;;;;4976532;28;20532;-68
2022/08/27 01:31:58;;;;;;;6.30;2.30;;;;;;;;;;4971734;28;20231;-68
2022/08/27 01:34:23;;;;;;;6.10;2.20;;;;;;;;;;4968263;28;20472;-68
2022/08/27 01:36:48;;;;;;;6.60;2.00;;;;;;;;;;4979313;28;20649;-68
2022/08/27 01:39:14;;;;;;;5.97;2.10;;;;;;;;;;4978511;28;20182;-68
2022/08/27 01:41:39;;;;;;;7.38;1.85;;;;;;;;;;4982425;28;20185;-68
2022/08/27 01:44:04;;;;;;;6.97;2.13;;;;;;;;;;4977937;28;20289;-68
2022/08/27 01:46:29;;;;;;;6.28;2.22;;;;;;;;;;4977842;28;20210;-68
2022/08/27 01:48:55;;;;;;;4.43;1.88;;;;;;;;;;4980908;28;20244;-68
2022/08/27 01:51:20;;;;;;;7.03;1.92;;;;;;;;;;4978043;28;20196;-68
2022/08/27 01:57:02;;;;;;;8.45;2.38;;;;;;;;;;4950948;28;20216;-68
2022/08/27 01:59:28;;;;;;;8.05;1.98;;;;;;;;;;4977576;28;20223;-69
2022/08/27 02:01:53;;;;;;;6.10;2.28;;;;;;;;;;4977285;28;20189;-66
2022/08/27 02:04:19;;;;;;;5.55;1.85;;;;;;;;;;4978598;28;20235;-68
2022/08/27 02:06:45;;;;;;;6.28;2.03;;;;;;;;;;4976022;28;20181;-68
2022/08/27 02:09:11;;;;;;;8.20;2.05;;;;;;;;;;4979129;28;20193;-68
2022/08/27 02:11:36;;;;;;;8.75;2.17;;;;;;;;;;4976863;28;20196;-68
2022/08/27 02:14:01;;;;;;;9.55;2.38;;;;;;;;;;4977734;28;20225;-68
2022/08/27 02:16:26;;;;;;;8.55;2.40;;;;;;;;;;4971612;28;20181;-68
2022/08/27 02:18:53;;;;;;;8.00;2.05;;;;;;;;;;4968243;28;20193;-69
2022/08/27 02:21:18;;;;;;;7.05;2.13;;;;;;;;;;4972274;28;20630;-69
2022/08/27 02:23:44;;;;;;;7.78;2.22;;;;;;;;;;4977754;28;20189;-68
2022/08/27 02:26:09;;;;;;;5.97;2.35;;;;;;;;;;4978828;28;20280;-69
2022/08/27 02:28:35;;;;;;;8.23;2.13;;;;;;;;;;4976562;28;20190;-68
2022/08/27 02:31:00;;;;;;;9.45;2.53;;;;;;;;;;4976374;28;20222;-68
2022/08/27 02:33:26;;;;;;;5.65;1.95;;;;;;;;;;4980432;28;20212;-68
2022/08/27 02:35:51;;;;;;;7.97;2.13;;;;;;;;;;4978188;28;20196;-69
2022/08/27 02:38:16;;;;;;;8.27;2.35;;;;;;;;;;4971428;28;20629;-68
2022/08/27 02:40:42;;;;;;;7.03;2.58;;;;;;;;;;4966901;28;20185;-68
2022/08/27 02:43:07;;;;;;;5.88;2.05;;;;;;;;;;4965015;28;20264;-68
2022/08/27 02:45:33;;;;;;;7.05;1.90;;;;;;;;;;4975274;28;20683;-68
2022/08/27 02:47:59;;;;;;;6.03;2.08;;;;;;;;;;4976715;28;20224;-68
2022/08/27 02:50:25;;;;;;;8.38;2.47;;;;;;;;;;4976346;28;20188;-68
2022/08/27 02:52:50;;;;;;;7.45;2.22;;;;;;;;;;4979329;28;20191;-67
2022/08/27 02:55:16;;;;;;;5.45;2.10;;;;;;;;;;4976886;28;20292;-68
2022/08/27 03:01:00;;;;;;;6.25;2.13;;;;;;;;;;4948064;28;20707;-69
2022/08/27 03:03:25;;;;;;;9.32;2.35;;;;;;;;;;4968272;28;20648;-68
2022/08/27 03:05:51;;;;;;;7.40;2.20;;;;;;;;;;4968295;28;20184;-69
2022/08/27 03:08:16;;;;;;;7.55;2.10;;;;;;;;;;4976557;28;20177;-69
2022/08/27 03:10:42;;;;;;;4.78;2.40;;;;;;;;;;4975422;28;20204;-69
2022/08/27 03:13:07;;;;;;;7.57;2.67;;;;;;;;;;4962759;28;20304;-68
2022/08/27 03:15:32;;;;;;;6.05;2.20;;;;;;;;;;4976730;28;20189;-68
2022/08/27 03:20:43;;;;;;;5.80;2.35;;;;;;;;;;4978390;28;20208;-69
2022/08/27 03:23:08;;;;;;;5.25;2.05;;;;;;;;;;4954574;28;20192;-68
2022/08/27 03:25:34;;;;;;;7.05;2.38;;;;;;;;;;4971235;28;20185;-68
2022/08/27 03:27:59;;;;;;;6.93;2.28;;;;;;;;;;4969216;28;20337;-68
2022/08/27 03:30:24;;;;;;;7.50;2.45;;;;;;;;;;4975261;28;20558;-68
2022/08/27 03:32:50;;;;;;;7.63;2.10;;;;;;;;;;4974613;28;20270;-68
2022/08/27 03:35:16;;;;;;;5.78;2.38;;;;;;;;;;4972431;28;20197;-68
2022/08/27 03:37:41;;;;;;;7.60;2.60;;;;;;;;;;4974759;28;20193;-68
2022/08/27 03:40:07;;;;;;;6.50;2.25;;;;;;;;;;4975630;28;20599;-67
2022/08/27 03:42:33;;;;;;;7.03;2.08;;;;;;;;;;4977920;28;20197;-67
2022/08/27 03:44:58;;;;;;;6.25;2.40;;;;;;;;;;4975760;28;20196;-68
2022/08/27 03:47:24;;;;;;;6.43;2.50;;;;;;;;;;4967131;28;20387;-68
2022/08/27 03:49:49;;;;;;;10.98;2.42;;;;;;;;;;4970744;28;20256;-67
2022/08/27 03:52:14;;;;;;;7.38;2.05;;;;;;;;;;4969619;28;20243;-68
2022/08/27 03:54:40;;;;;;;8.77;2.25;;;;;;;;;;4974465;28;20228;-68
2022/08/27 03:57:05;;;;;;;5.90;2.47;;;;;;;;;;4972949;28;20181;-69
2022/08/27 03:59:30;;;;;;;8.38;2.42;;;;;;;;;;4976352;28;20656;-68
2022/08/27 04:05:37;;;;;;;8.55;2.42;;;;;;;;;;4955927;28;20564;-68
2022/08/27 04:08:02;;;;;;;9.20;2.60;;;;;;;;;;4935586;29;20253;-68
2022/08/27 04:10:28;;;;;;;8.35;2.35;;;;;;;;;;4933327;29;20645;-68
2022/08/27 04:12:53;;;;;;;5.90;2.40;;;;;;;;;;4930406;28;20210;-68
2022/08/27 04:15:18;;;;;;;12.15;3.38;;;;;;;;;;4934744;28;20688;-68
2022/08/27 04:17:44;;;;;;;6.90;2.75;;;;;;;;;;4920272;29;20191;-68
2022/08/27 04:20:09;;;;;;;7.80;2.97;;;;;;;;;;4923538;29;20677;-68
2022/08/27 04:22:34;;;;;;;8.90;3.20;;;;;;;;;;4924128;29;21003;-70
2022/08/27 04:25:00;;;;;;;8.10;2.67;;;;;;;;;;4936872;28;20225;-70
2022/08/27 04:27:25;;;;;;;8.10;2.50;;;;;;;;;;4936117;28;20265;-71
2022/08/27 04:29:55;;;;;;;10.98;2.70;;;;;;;;;;4930345;28;21837;-70
2022/08/27 04:32:20;;;;;;;6.10;2.70;;;;;;;;;;4910059;29;20795;-70
2022/08/27 04:34:46;;;;;;;7.13;2.50;;;;;;;;;;4924467;28;20233;-71
2022/08/27 04:37:11;;;;;;;5.97;2.33;;;;;;;;;;4924663;29;20269;-70
2022/08/27 04:39:36;;;;;;;7.70;2.53;;;;;;;;;;4939217;28;20186;-68
2022/08/27 04:42:02;;;;;;;9.38;2.63;;;;;;;;;;4938527;28;20570;-69
2022/08/27 04:44:28;;;;;;;5.43;2.55;;;;;;;;;;4937490;28;20543;-70
2022/08/27 04:46:54;;;;;;;7.35;2.80;;;;;;;;;;4923931;29;20194;-70
2022/08/27 04:49:20;;;;;;;6.65;2.58;;;;;;;;;;4921586;29;20223;-70
2022/08/27 04:51:45;;;;;;;11.10;2.67;;;;;;;;;;4936516;28;20266;-69
2022/08/27 04:54:11;;;;;;;6.18;2.30;;;;;;;;;;4919787;29;20225;-70
2022/08/27 04:56:36;;;;;;;6.35;2.35;;;;;;;;;;4925360;28;20341;-70
2022/08/27 05:11:20;;;;;;;8.47;2.90;;;;;;;;;;4978719;28;20525;-70
2022/08/27 05:13:45;;;;;;;5.80;2.50;;;;;;;;;;4978173;28;20489;-68
2022/08/27 05:16:12;;;;;;;6.45;2.63;;;;;;;;;;4961417;28;20220;-69
2022/08/27 05:18:37;;;;;;;6.45;2.40;;;;;;;;;;4977671;28;20595;-72
2022/08/27 05:21:02;;;;;;;7.35;2.45;;;;;;;;;;4977208;28;20194;-72
2022/08/27 05:23:28;;;;;;;7.60;2.70;;;;;;;;;;4973225;28;20190;-66
2022/08/27 05:25:53;;;;;;;6.78;2.53;;;;;;;;;;4976440;28;20184;-64
2022/08/27 05:28:20;;;;;;;8.85;2.53;;;;;;;;;;4973977;28;20574;-65
2022/08/27 05:30:46;;;;;;;7.10;2.58;;;;;;;;;;4975958;28;20193;-65
2022/08/27 05:33:13;;;;;;;9.32;2.63;;;;;;;;;;4979011;28;20209;-65
2022/08/27 05:35:39;;;;;;;5.47;2.20;;;;;;;;;;4984610;28;20265;-66
2022/08/27 05:38:05;;;;;;;7.00;2.47;;;;;;;;;;4982580;28;20798;-65
2022/08/27 05:40:30;;;;;;;7.70;2.78;;;;;;;;;;4985754;28;20213;-65
2022/08/27 05:42:55;;;;;;;6.63;2.53;;;;;;;;;;4981207;28;20553;-65
2022/08/27 05:45:21;;;;;;;6.28;2.25;;;;;;;;;;4987087;28;20192;-64
2022/08/27 05:47:46;;;;;;;5.55;2.50;;;;;;;;;;4987681;28;20261;-64
2022/08/27 05:50:11;;;;;;;5.57;2.00;;;;;;;;;;4986146;28;20193;-66
2022/08/27 05:52:37;;;;;;;10.48;2.72;;;;;;;;;;4987763;28;20199;-66
2022/08/27 05:55:02;;;;;;;4.35;2.00;;;;;;;;;;4981009;28;21739;-66
2022/08/27 05:57:27;;;;;;;7.03;2.40;;;;;;;;;;4980785;28;20169;-67
2022/08/27 06:02:38;;;;;;;5.47;2.30;;;;;;;;;;4975534;28;20253;-66
2022/08/27 06:05:03;;;;;;;7.75;2.42;;;;;;;;;;4979581;28;20177;-66
2022/08/27 06:14:26;;;;;;;6.18;2.20;;;;;;;;;;4998517;28;20325;-66
2022/08/27 06:17:17;;;;;;;5.07;2.10;;;;;;;;;;4997790;28;20862;-66
2022/08/27 06:19:44;;;;;;;6.50;2.20;;;;;;;;;;4997746;28;20232;-65
2022/08/27 06:22:09;;;;;;;4.97;1.90;;;;;;;;;;4992794;28;20232;-66
2022/08/27 06:24:35;;;;;;;6.53;2.10;;;;;;;;;;4997673;28;20184;-66
2022/08/27 06:27:00;;;;;;;6.38;2.20;;;;;;;;;;4996003;28;20866;-66
2022/08/27 06:29:25;;;;;;;5.95;2.30;;;;;;;;;;4997385;28;20249;-66
2022/08/27 06:31:53;;;;;;;6.78;2.30;;;;;;;;;;4994494;28;20215;-66
2022/08/27 06:34:19;;;;;;;5.97;2.05;;;;;;;;;;4995768;28;20224;-66
2022/08/27 06:36:44;;;;;;;5.97;2.13;;;;;;;;;;4996106;28;20173;-65
2022/08/27 06:39:12;;;;;;;4.90;1.80;;;;;;;;;;4994057;28;20207;-65
2022/08/27 06:41:37;;;;;;;5.43;1.80;;;;;;;;;;4997445;28;20679;-66
2022/08/27 06:44:03;;;;;;;5.68;1.83;;;;;;;;;;4996229;28;20177;-66
2022/08/27 06:46:28;;;;;;;6.15;1.80;;;;;;;;;;4999473;28;20644;-66
2022/08/27 06:48:54;;;;;;;4.32;1.60;;;;;;;;;;4997835;28;20579;-66
2022/08/27 06:51:23;;;;;;;4.65;1.65;;;;;;;;;;4995987;28;20623;-65
2022/08/27 06:54:13;;;;;;;5.95;1.83;;;;;;;;;;4993744;28;20584;-66
2022/08/27 06:56:39;;;;;;;4.65;1.90;;;;;;;;;;4997930;28;20176;-65
2022/08/27 06:59:06;;;;;;;4.93;1.50;;;;;;;;;;4995651;28;20239;-66
2022/08/27 07:01:32;;;;;;;4.43;1.70;;;;;;;;;;4994238;28;20188;-65
2022/08/27 07:03:59;;;;;;;5.50;1.80;;;;;;;;;;4995291;28;20230;-65
2022/08/27 07:06:24;;;;;;;4.80;1.52;;;;;;;;;;4996341;28;20201;-66
2022/08/27 07:08:50;;;;;;;5.85;1.50;;;;;;;;;;4997173;28;20200;-64
2022/08/27 07:17:20;;;;;;;3.58;1.40;;;;;;;;;;4996536;28;20247;-62
2022/08/27 07:19:46;;;;;;;4.35;1.23;;;;;;;;;;4992535;28;20209;-64
2022/08/27 07:22:11;;;;;;;5.15;1.27;;;;;;;;;;4998860;28;20263;-63
2022/08/27 07:24:37;;;;;;;7.07;1.50;;;;;;;;;;4998334;28;20176;-62
2022/08/27 07:27:02;;;;;;;4.20;1.27;;;;;;;;;;4998139;28;21491;-63
2022/08/27 07:29:28;;;;;;;5.57;1.40;;;;;;;;;;5002162;28;20262;-62
2022/08/27 07:31:53;;;;;;;6.32;1.42;;;;;;;;;;5000525;28;20242;-63
2022/08/27 07:34:18;;;;;;;5.32;1.30;;;;;;;;;;4996424;28;20244;-64
2022/08/27 07:36:43;;;;;;;4.03;1.50;;;;;;;;;;4992170;28;20239;-63
2022/08/27 07:39:09;;;;;;;6.03;1.40;;;;;;;;;;4992959;28;20644;-65
2022/08/27 07:44:23;;;;;;;5.95;1.23;;;;;;;;;;4997956;28;20179;-63
2022/08/27 07:44:26;;;;;;;5.45;1.20;;;;;;;;;;4991975;28;20555;-63
2022/08/27 07:46:53;;;;;;;5.80;1.15;;;;;;;;;;4993116;28;20185;-63
2022/08/27 07:49:19;;;;;;;5.28;1.05;;;;;;;;;;4996929;28;20185;-64
2022/08/27 07:51:44;;;;;;;5.30;1.35;;;;;;;;;;4995565;28;20208;-63
2022/08/27 07:54:09;;;;;;;5.78;1.30;;;;;;;;;;4993047;28;20597;-64
2022/08/27 07:56:34;;;;;;;4.53;1.30;;;;;;;;;;4995139;28;20188;-63
2022/08/27 07:59:00;;;;;;;4.32;1.10;;;;;;;;;;4995070;28;20181;-63
2022/08/27 08:01:26;;;;;;;4.88;1.10;;;;;;;;;;4997617;28;20564;-62
2022/08/27 08:03:51;;;;;;;4.45;1.10;;;;;;;;;;4995806;28;20226;-63
2022/08/27 08:06:17;;;;;;;3.90;1.13;;;;;;;;;;4992372;28;20193;-63
2022/08/27 08:08:42;;;;;;;4.03;1.10;;;;;;;;;;4995011;28;20199;-64
2022/08/27 08:11:08;;;;;;;4.32;1.02;;;;;;;;;;4992134;28;20640;-63
2022/08/27 08:23:20;;;;;;;4.68;0.95;;;;;;;;;;4992753;28;20788;-63
2022/08/27 08:25:46;;;;;;;4.07;1.30;;;;;;;;;;4995974;28;20645;-64
2022/08/27 08:28:11;;;;;;;4.75;1.08;;;;;;;;;;4992595;28;20176;-63
2022/08/27 08:30:37;;;;;;;7.28;1.67;;;;;;;;;;4995001;28;20208;-63
2022/08/27 08:33:02;;;;;;;4.93;0.95;;;;;;;;;;4996969;28;20189;-64
2022/08/27 08:35:27;;;;;;;5.13;1.30;;;;;;;;;;4993028;28;20181;-63
2022/08/27 08:37:53;;;;;;;5.28;1.23;;;;;;;;;;4993530;28;20189;-64
2022/08/27 08:40:24;;;;;;;3.60;0.82;;;;;;;;;;4994574;28;20184;-64
2022/08/27 08:42:51;;;;;;;5.15;1.35;;;;;;;;;;4992914;28;20189;-63
2022/08/27 08:45:17;;;;;;;5.75;1.00;;;;;;;;;;4995010;28;20557;-62
2022/08/27 08:47:43;;;;;;;3.45;0.98;;;;;;;;;;4994297;28;20215;-62
2022/08/27 08:50:12;;;;;;;6.25;1.13;;;;;;;;;;4993394;28;20272;-63
2022/08/27 08:52:38;;;;;;;4.80;1.00;;;;;;;;;;4997350;28;20662;-62
2022/08/27 08:55:07;;;;;;;4.25;1.08;;;;;;;;;;4990571;28;20219;-62
2022/08/27 08:57:35;;;;;;;3.20;1.30;;;;;;;;;;4997563;28;20263;-63
2022/08/27 09:00:03;;;;;;;4.90;1.05;;;;;;;;;;4991966;28;20181;-63
2022/08/27 09:02:29;;;;;;;5.90;1.00;;;;;;;;;;4994198;28;20675;-64
2022/08/27 09:04:54;;;;;;;2.53;1.20;;;;;;;;;;4997556;28;20215;-63
2022/08/27 09:07:24;;;;;;;4.78;1.10;;;;;;;;;;4996353;28;20185;-63
2022/08/27 09:09:53;;;;;;;4.75;1.13;;;;;;;;;;4997089;28;20239;-63
2022/08/27 09:12:21;;;;;;;5.45;1.40;;;;;;;;;;4995182;28;20224;-63
2022/08/27 09:14:49;;;;;;;4.25;0.98;;;;;;;;;;4996516;28;20295;-63
2022/08/27 09:17:15;;;;;;;4.47;0.98;;;;;;;;;;4999330;28;20180;-63
2022/08/27 09:19:41;;;;;;;5.68;1.20;;;;;;;;;;4985815;28;20572;-63
2022/08/27 09:22:12;;;;;;;6.63;1.30;;;;;;;;;;5000221;28;20220;-63
2022/08/27 09:24:42;;;;;;;6.15;1.20;;;;;;;;;;4997652;28;20189;-62
2022/08/27 09:27:11;;;;;;;6.75;1.10;;;;;;;;;;4995742;28;20193;-63
2022/08/27 09:29:37;;;;;;;5.32;1.10;;;;;;;;;;4998007;28;20255;-66
2022/08/27 09:32:03;;;;;;;5.82;1.10;;;;;;;;;;4997454;28;20225;-65
2022/08/27 09:34:33;;;;;;;7.30;1.40;;;;;;;;;;4998198;28;20703;-66
2022/08/27 09:37:00;;;;;;;3.92;1.10;;;;;;;;;;4997217;28;20594;-70
2022/08/27 09:39:32;;;;;;;4.38;1.08;;;;;;;;;;4995851;28;20185;-66
2022/08/27 09:41:58;;;;;;;4.47;1.10;;;;;;;;;;4996087;28;20212;-67
2022/08/27 09:44:24;;;;;;;6.18;1.40;;;;;;;;;;4995730;28;20176;-66
2022/08/27 09:46:51;;;;;;;5.13;1.17;;;;;;;;;;4997559;28;20319;-66
2022/08/27 09:49:17;;;;;;;5.25;1.00;;;;;;;;;;4997126;28;20819;-66
2022/08/27 09:51:43;;;;;;;4.07;1.08;;;;;;;;;;4998888;28;20701;-66
2022/08/27 09:54:08;;;;;;;5.22;1.15;;;;;;;;;;4999526;28;20217;-66
2022/08/27 09:56:36;;;;;;;5.00;1.23;;;;;;;;;;4996122;28;20189;-66
2022/08/27 09:59:03;;;;;;;5.28;1.20;;;;;;;;;;4992106;28;20181;-67
2022/08/27 10:01:30;;;;;;;4.70;1.15;;;;;;;;;;4995610;28;20189;-66
2022/08/27 10:04:06;;;;;;;2.63;1.00;;;;;;;;;;4999040;28;20268;-66
2022/08/27 10:06:31;;;;;;;4.55;1.25;;;;;;;;;;4996576;28;20271;-66
2022/08/27 10:08:59;;;;;;;5.40;1.33;;;;;;;;;;4984622;28;20319;-66
2022/08/27 10:11:28;;;;;;;3.17;1.13;;;;;;;;;;4998121;28;20180;-66
2022/08/27 10:14:04;;;;;;;4.18;1.20;;;;;;;;;;4993509;28;20228;-68
2022/08/27 10:16:30;;;;;;;4.93;1.50;;;;;;;;;;4993905;28;20181;-66
2022/08/27 10:18:58;;;;;;;4.05;1.15;;;;;;;;;;4994730;28;20871;-67
2022/08/27 10:47:59;;;;;;;3.17;1.00;;;;;;;;;;4987060;28;20220;-67
2022/08/27 10:50:26;;;;;;;6.30;1.65;;;;;;;;;;4984018;28;20185;-67
2022/08/27 10:52:55;;;;;;;2.90;0.95;;;;;;;;;;4985293;28;20201;-66
2022/08/27 10:55:22;;;;;;;4.80;1.27;;;;;;;;;;4974549;28;20201;-67
2022/08/27 10:57:57;;;;;;;4.30;1.10;;;;;;;;;;4989561;28;20181;-66
2022/08/27 11:00:23;;;;;;;4.38;1.10;;;;;;;;;;4986500;28;20647;-66
2022/08/27 11:02:49;;;;;;;4.72;1.30;;;;;;;;;;4984728;28;20192;-67
2022/08/27 11:05:21;;;;;;;6.50;1.65;;;;;;;;;;4989964;28;20177;-66
2022/08/27 11:07:48;;;;;;;5.18;1.00;;;;;;;;;;4983595;28;20621;-67
2022/08/27 11:10:17;;;;;;;6.30;1.40;;;;;;;;;;4985001;28;20221;-66
2022/08/27 11:12:43;;;;;;;4.40;1.10;;;;;;;;;;4976904;28;20196;-67
2022/08/27 11:15:12;;;;;;;5.28;1.58;;;;;;;;;;4967215;28;20209;-67
2022/08/27 11:17:40;;;;;;;7.13;1.20;;;;;;;;;;4978496;28;20275;-67
2022/08/27 11:20:13;;;;;;;3.85;1.10;;;;;;;;;;4985681;28;20216;-66
2022/08/27 11:39:20;;;;;;;3.72;1.20;;;;;;;;;;4986314;28;20230;-66
2022/08/27 11:42:10;;;;;;;8.35;1.30;;;;;;;;;;4987651;28;20189;-67
2022/08/27 11:45:00;;;;;;;5.35;1.77;;;;;;;;;;4984928;28;20223;-66
2022/08/27 11:47:50;;;;;;;5.85;1.20;;;;;;;;;;4983114;28;20180;-66
2022/08/27 11:50:41;;;;;;;6.15;1.38;;;;;;;;;;4987167;28;20185;-67
2022/08/27 11:53:31;;;;;;;4.57;1.30;;;;;;;;;;4985720;28;20542;-66
2022/08/27 11:56:21;;;;;;;5.97;1.20;;;;;;;;;;4984830;28;20189;-66
2022/08/27 11:59:11;;;;;;;4.25;1.17;;;;;;;;;;4986424;28;20189;-66
2022/08/27 12:02:01;;;;;;;4.93;1.30;;;;;;;;;;4986768;28;20239;-66
2022/08/27 12:04:51;;;;;;;4.97;1.20;;;;;;;;;;4982667;28;20200;-66
2022/08/27 12:07:43;;;;;;;5.97;1.00;;;;;;;;;;4982874;28;20186;-66
2022/08/27 12:10:33;;;;;;;8.02;1.48;;;;;;;;;;4985089;28;20177;-67
2022/08/27 12:13:23;;;;;;;5.38;1.30;;;;;;;;;;4983627;28;20612;-66
2022/08/27 12:16:15;;;;;;;5.75;1.27;;;;;;;;;;4982968;28;20964;-66
2022/08/27 12:19:06;;;;;;;10.73;1.75;;;;;;;;;;4983601;28;20585;-66
2022/08/27 12:21:56;;;;;;;4.80;1.30;;;;;;;;;;4987674;28;20181;-66
2022/08/27 12:24:48;;;;;;;6.10;1.35;;;;;;;;;;4983589;28;20272;-66
2022/08/27 12:27:37;;;;;;;3.65;1.02;;;;;;;;;;4984982;28;20225;-66
2022/08/27 12:30:05;;;;;;;3.25;1.20;;;;;;;;;;4986699;28;20236;-67
2022/08/27 12:32:31;;;;;;;5.55;1.05;;;;;;;;;;4984466;28;20236;-66
2022/08/27 12:35:01;;;;;;;4.82;1.25;;;;;;;;;;4983936;28;20716;-67
2022/08/27 12:37:29;;;;;;;6.75;1.30;;;;;;;;;;4987818;28;20181;-66
2022/08/27 12:39:55;;;;;;;6.80;1.30;;;;;;;;;;4986228;28;20292;-67
2022/08/27 12:42:20;;;;;;;5.10;1.10;;;;;;;;;;4979847;28;20185;-67
2022/08/27 12:44:46;;;;;;;6.47;1.17;;;;;;;;;;4989387;28;20176;-66
2022/08/27 12:47:12;;;;;;;4.20;1.10;;;;;;;;;;4988075;28;20200;-70
2022/08/27 12:49:40;;;;;;;7.00;1.30;;;;;;;;;;4968975;28;20554;-70
2022/08/27 12:52:24;;;;;;;6.90;1.42;;;;;;;;;;4971131;28;20607;-70
2022/08/27 12:54:50;;;;;;;7.32;1.10;;;;;;;;;;4974151;28;20683;-69
2022/08/27 12:57:19;;;;;;;7.55;1.60;;;;;;;;;;4965177;28;20209;-70
2022/08/27 12:59:46;;;;;;;4.00;1.17;;;;;;;;;;4963531;28;20193;-68
2022/08/27 13:02:30;;;;;;;5.82;1.10;;;;;;;;;;4966525;28;20249;-70
2022/08/27 13:04:55;;;;;;;6.70;1.42;;;;;;;;;;4962414;28;20186;-71
2022/08/27 13:07:28;;;;;;;4.93;1.25;;;;;;;;;;4968845;28;20201;-70
2022/08/27 13:09:53;;;;;;;2.55;1.00;;;;;;;;;;4971281;28;20273;-69
2022/08/27 13:12:18;;;;;;;5.50;1.35;;;;;;;;;;4958506;28;20210;-71
2022/08/27 13:14:44;;;;;;;7.00;1.48;;;;;;;;;;4959455;28;20214;-70
2022/08/27 13:17:10;;;;;;;4.82;1.40;;;;;;;;;;4974782;28;20669;-69
2022/08/27 13:19:36;;;;;;;5.18;1.13;;;;;;;;;;4968817;28;20218;-68
2022/08/27 13:22:03;;;;;;;6.97;1.33;;;;;;;;;;4986051;28;20591;-71
2022/08/27 13:24:31;;;;;;;6.40;1.45;;;;;;;;;;4960733;28;20194;-69
2022/08/27 13:39:21;;;;;;;8.10;1.85;;;;;;;;;;4965659;28;20225;-63
2022/08/27 13:41:47;;;;;;;4.93;1.35;;;;;;;;;;4975620;28;20197;-64
2022/08/27 13:44:15;;;;;;;4.13;1.30;;;;;;;;;;4985794;28;20411;-63
2022/08/27 13:46:43;;;;;;;4.72;1.10;;;;;;;;;;4981526;28;20747;-63
2022/08/27 13:49:11;;;;;;;6.07;1.40;;;;;;;;;;4972164;28;20328;-63
2022/08/27 13:51:37;;;;;;;4.93;1.20;;;;;;;;;;4976025;28;20189;-64
2022/08/27 13:54:14;;;;;;;4.32;1.10;;;;;;;;;;4964459;28;20222;-63
2022/08/27 13:56:40;;;;;;;7.60;1.55;;;;;;;;;;4975430;28;20301;-62
2022/08/27 13:59:09;;;;;;;5.90;1.33;;;;;;;;;;4969144;28;20639;-63
2022/08/27 14:01:34;;;;;;;5.75;1.35;;;;;;;;;;4961764;28;20569;-63
2022/08/27 14:04:01;;;;;;;4.07;1.30;;;;;;;;;;4962338;28;20526;-63
2022/08/27 14:06:26;;;;;;;6.05;1.25;;;;;;;;;;4966265;28;20197;-63
2022/08/27 14:08:51;;;;;;;7.07;1.40;;;;;;;;;;4969217;28;20256;-63
2022/08/27 14:11:21;;;;;;;6.65;1.45;;;;;;;;;;4981984;28;20751;-64
2022/08/27 14:13:46;;;;;;;7.30;1.30;;;;;;;;;;4981582;28;20214;-63
2022/08/27 14:16:14;;;;;;;7.22;1.30;;;;;;;;;;4963801;28;20209;-62
2022/08/27 14:18:48;;;;;;;5.75;1.15;;;;;;;;;;4963783;28;20467;-62
2022/08/27 14:21:13;;;;;;;6.40;1.45;;;;;;;;;;4962553;28;20276;-62
2022/08/27 14:23:38;;;;;;;6.65;1.45;;;;;;;;;;4956330;28;20232;-63
2022/08/27 14:26:05;;;;;;;5.38;1.20;;;;;;;;;;4960215;28;20239;-63
2022/08/27 14:44:49;;;;;;;6.85;1.08;;;;;;;;;;4961509;28;20317;-65
2022/08/27 14:47:16;;;;;;;6.78;1.50;;;;;;;;;;4961540;28;20236;-65
2022/08/27 14:49:43;;;;;;;6.72;1.20;;;;;;;;;;4943189;28;20233;-65
2022/08/27 14:52:08;;;;;;;8.23;1.40;;;;;;;;;;4947183;28;20284;-65
2022/08/27 14:54:35;;;;;;;6.25;1.08;;;;;;;;;;4977984;28;20216;-65
2022/08/27 14:57:01;;;;;;;5.78;1.48;;;;;;;;;;4967116;28;20587;-65
2022/08/27 14:59:27;;;;;;;4.93;1.17;;;;;;;;;;4963967;28;20734;-65
2022/08/27 15:01:53;;;;;;;7.35;1.23;;;;;;;;;;4961209;28;20194;-65
2022/08/27 15:04:18;;;;;;;4.07;1.15;;;;;;;;;;4953965;28;20862;-66
2022/08/27 15:06:43;;;;;;;6.18;1.40;;;;;;;;;;4961195;28;20204;-65
2022/08/27 15:09:09;;;;;;;5.55;1.20;;;;;;;;;;4948277;28;20193;-65
2022/08/27 15:11:34;;;;;;;6.72;1.38;;;;;;;;;;4952730;28;20716;-65
2022/08/27 15:14:00;;;;;;;4.38;0.98;;;;;;;;;;4977920;28;20577;-65
2022/08/27 15:16:29;;;;;;;5.40;1.50;;;;;;;;;;4981691;28;20178;-65
2022/08/27 15:18:55;;;;;;;5.78;1.30;;;;;;;;;;4967874;28;20181;-65
2022/08/27 15:21:21;;;;;;;7.70;1.38;;;;;;;;;;4963099;28;20656;-65
2022/08/27 15:23:46;;;;;;;7.10;1.30;;;;;;;;;;4969738;28;20190;-65
2022/08/27 15:26:11;;;;;;;7.32;1.65;;;;;;;;;;4961762;28;20621;-65
2022/08/27 15:28:37;;;;;;;6.07;1.17;;;;;;;;;;4953666;28;20221;-65
2022/08/27 15:31:02;;;;;;;7.55;2.05;;;;;;;;;;4961262;28;20184;-65
2022/08/27 15:33:27;;;;;;;5.03;1.13;;;;;;;;;;4972978;28;20186;-65
2022/08/27 15:36:18;;;;;;;5.88;1.35;;;;;;;;;;4968865;28;20226;-65
2022/08/27 15:39:09;;;;;;;7.80;1.25;;;;;;;;;;4965509;28;20200;-65
2022/08/27 15:41:59;;;;;;;8.02;1.40;;;;;;;;;;4961060;28;20290;-65
2022/08/27 15:44:49;;;;;;;5.10;1.20;;;;;;;;;;4965294;28;20198;-65
2022/08/27 15:47:39;;;;;;;6.03;1.13;;;;;;;;;;4973198;28;20201;-65
2022/08/27 15:50:29;;;;;;;7.13;1.10;;;;;;;;;;4992415;28;20207;-65
2022/08/27 15:53:20;;;;;;;4.32;1.02;;;;;;;;;;4993111;28;20504;-65
2022/08/27 15:56:11;;;;;;;5.83;1.30;;;;;;;;;;4995121;28;20451;-70
2022/08/27 15:59:01;;;;;;;6.93;0.98;;;;;;;;;;4999197;28;20468;-64
2022/08/27 16:01:51;;;;;;;3.03;1.00;;;;;;;;;;4995502;28;20181;-65
2022/08/27 16:04:41;;;;;;;5.82;1.55;;;;;;;;;;4992573;28;20662;-65
2022/08/27 16:07:31;;;;;;;5.85;1.25;;;;;;;;;;4994032;28;20800;-66
2022/08/27 16:10:21;;;;;;;7.55;1.30;;;;;;;;;;4995922;28;20293;-68
2022/08/27 16:13:11;;;;;;;6.00;1.08;;;;;;;;;;4992824;28;20290;-65
2022/08/27 16:15:38;;;;;;;6.53;1.27;;;;;;;;;;4993203;28;20526;-66
2022/08/27 16:18:03;;;;;;;5.50;1.30;;;;;;;;;;4992424;28;20636;-64
2022/08/27 16:20:28;;;;;;;6.93;1.15;;;;;;;;;;4994919;28;20184;-64
2022/08/27 16:22:54;;;;;;;3.15;1.00;;;;;;;;;;4995469;28;20178;-64
2022/08/27 16:25:22;;;;;;;7.37;1.60;;;;;;;;;;4990873;28;20428;-62
2022/08/27 16:27:47;;;;;;;4.65;1.15;;;;;;;;;;4990663;28;20177;-62
2022/08/27 16:30:12;;;;;;;5.82;1.15;;;;;;;;;;4997579;28;20255;-62
2022/08/27 16:32:38;;;;;;;5.32;1.27;;;;;;;;;;4993840;28;20177;-63
2022/08/27 17:05:50;;;;;;;7.05;1.40;;;;;;;;;;4961672;28;20192;-61
2022/08/27 17:08:16;;;;;;;3.60;0.90;;;;;;;;;;4949558;28;20194;-63
2022/08/27 17:10:45;;;;;;;3.95;1.15;;;;;;;;;;4965876;28;20573;-62
2022/08/27 17:13:11;;;;;;;5.70;1.20;;;;;;;;;;4966639;28;20189;-61
2022/08/27 17:15:37;;;;;;;3.53;0.82;;;;;;;;;;4963482;28;20217;-63
2022/08/27 17:18:02;;;;;;;4.70;1.10;;;;;;;;;;4962719;28;20202;-61
2022/08/27 17:20:28;;;;;;;4.55;1.00;;;;;;;;;;4963332;28;20583;-62
2022/08/27 17:22:53;;;;;;;6.88;1.20;;;;;;;;;;4963447;28;20182;-62
2022/08/27 17:25:19;;;;;;;5.20;0.98;;;;;;;;;;4954147;28;20189;-63
2022/08/27 17:27:44;;;;;;;4.68;1.00;;;;;;;;;;4962907;28;20240;-61
2022/08/27 17:30:10;;;;;;;5.05;1.02;;;;;;;;;;4961807;28;20186;-62
2022/08/27 17:32:36;;;;;;;5.75;1.10;;;;;;;;;;4965764;28;20182;-63